Time;durP1;ratioP1;P1;durP2;ratioP2;P2;SDS_P1;SDS_P2;PMS_P1;PMS_P2;Temp;Humidity;BMP_temperature;BMP_pressure;BME280_temperature;BME280_humidity;BME280_pressure;Samples;Min_cycle;Max_cycle;Signal;HPM_P1;HPM_P2
2022/01/25 00:15:26;;;;;;;79.63;53.22;;;;;;;2.04;86.76;103335.41;5069239;28;20036;-67
2022/01/25 00:29:02;;;;;;;81.53;55.58;;;;;;;2.11;87.05;103338.09;5078275;28;20097;-67
2022/01/25 00:31:26;;;;;;;75.18;52.30;;;;;;;2.14;87.10;103339.03;5069215;28;20492;-68
2022/01/25 00:33:54;;;;;;;81.22;55.17;;;;;;;2.13;87.17;103337.28;5071826;28;20034;-67
2022/01/25 00:36:22;;;;;;;79.45;54.78;;;;;;;2.09;87.29;103334.56;5070576;28;20451;-67
2022/01/25 00:38:48;;;;;;;79.75;53.97;;;;;;;2.17;87.46;103346.94;5070968;28;20035;-67
2022/01/25 00:41:15;;;;;;;81.22;52.72;;;;;;;2.14;87.41;103349.53;5073551;28;20467;-67
2022/01/25 00:43:42;;;;;;;78.85;55.17;;;;;;;2.12;87.88;103340.78;5065497;28;20033;-68
2022/01/25 00:46:11;;;;;;;83.00;54.55;;;;;;;2.14;87.65;103339.03;5072149;28;20048;-67
2022/01/25 00:56:20;;;;;;;83.70;53.97;;;;;;;2.22;88.04;103336.50;5069810;28;20107;-67
2022/01/25 00:58:49;;;;;;;81.32;54.00;;;;;;;2.20;88.16;103332.97;5069291;28;20112;-67
2022/01/25 01:01:14;;;;;;;78.25;54.50;;;;;;;2.22;87.78;103333.88;5069476;28;20483;-67
2022/01/25 01:03:42;;;;;;;78.22;54.30;;;;;;;2.20;87.64;103331.22;5068654;28;20039;-67
2022/01/25 01:06:07;;;;;;;77.32;54.53;;;;;;;2.21;87.37;103330.38;5076517;28;20032;-67
2022/01/25 01:08:33;;;;;;;77.03;53.42;;;;;;;2.22;87.58;103329.50;5071734;28;20032;-67
2022/01/25 01:11:02;;;;;;;76.93;52.60;;;;;;;2.17;87.54;103320.69;5075367;28;20583;-67
2022/01/25 01:40:47;;;;;;;77.60;52.93;;;;;;;2.27;87.83;103337.44;5070602;28;20395;-67
2022/01/25 01:43:17;;;;;;;76.33;52.13;;;;;;;2.22;88.16;103333.88;5071774;28;20552;-67
2022/01/25 01:48:30;;;;;;;75.85;51.28;;;;;;;2.36;87.98;103331.41;5072726;28;20055;-67
2022/01/25 01:51:04;;;;;;;74.93;51.43;;;;;;;2.28;87.91;103332.19;5072191;28;20552;-67
2022/01/25 01:53:30;;;;;;;78.63;52.73;;;;;;;2.39;88.22;103348.09;5070568;28;20708;-67
2022/01/25 01:55:56;;;;;;;85.45;53.42;;;;;;;2.36;88.14;103345.44;5072368;28;20172;-67
2022/01/25 01:58:21;;;;;;;78.88;53.35;;;;;;;2.36;88.36;103340.16;5071110;28;20024;-67
2022/01/25 02:00:48;;;;;;;79.20;54.27;;;;;;;2.38;88.21;103342.81;5071488;28;20108;-67
2022/01/25 02:03:14;;;;;;;78.43;54.37;;;;;;;2.38;88.58;103356.84;5071876;28;20039;-67
2022/01/25 02:05:40;;;;;;;81.80;53.87;;;;;;;2.36;88.38;103344.56;5069845;28;20028;-67
2022/01/25 02:08:06;;;;;;;75.23;51.90;;;;;;;2.37;88.27;103346.31;5070754;28;20036;-67
2022/01/25 02:10:33;;;;;;;77.13;53.17;;;;;;;2.40;88.44;103333.19;5071180;28;20526;-67
2022/01/25 02:12:59;;;;;;;77.10;52.43;;;;;;;2.40;88.30;103338.47;5071334;28;20627;-67
2022/01/25 02:15:28;;;;;;;77.75;52.72;;;;;;;2.39;88.45;103336.72;5087354;28;20035;-67
2022/01/25 02:23:21;;;;;;;76.78;53.83;;;;;;;2.43;88.16;103333.25;5071588;28;20415;-67
2022/01/25 02:25:48;;;;;;;82.13;53.03;;;;;;;2.42;88.20;103336.75;5071684;28;20048;-67
2022/01/25 02:28:15;;;;;;;79.33;53.20;;;;;;;2.40;88.12;103325.31;5071186;28;20274;-67
2022/01/25 02:30:41;;;;;;;77.95;53.40;;;;;;;2.41;88.62;103327.06;5070995;28;20028;-67
2022/01/25 02:33:07;;;;;;;76.77;53.13;;;;;;;2.39;88.32;103329.69;5069941;28;20439;-67
2022/01/25 02:35:33;;;;;;;82.03;55.15;;;;;;;2.41;88.54;103321.81;5071688;28;20016;-67
2022/01/25 02:37:58;;;;;;;77.30;53.25;;;;;;;2.42;88.17;103318.34;5070668;28;20086;-67
2022/01/25 02:40:26;;;;;;;78.40;54.07;;;;;;;2.41;88.82;103317.47;5069970;28;20037;-67
2022/01/25 02:42:52;;;;;;;79.90;54.87;;;;;;;2.43;88.39;103307.84;5069744;28;20498;-67
2022/01/25 02:45:18;;;;;;;79.90;53.27;;;;;;;2.39;88.30;103303.44;5071260;28;20025;-67
2022/01/25 02:50:30;;;;;;;79.47;54.80;;;;;;;2.44;87.86;103300.84;5071068;28;20040;-67
2022/01/25 02:52:55;;;;;;;77.37;52.93;;;;;;;2.42;88.24;103307.84;5070805;28;20107;-67
2022/01/25 02:55:21;;;;;;;85.20;54.22;;;;;;;2.46;88.15;103307.88;5070594;28;20108;-67
2022/01/25 02:57:48;;;;;;;82.20;54.72;;;;;;;2.46;88.08;103307.88;5086515;28;20048;-67
2022/01/25 03:00:17;;;;;;;75.33;51.20;;;;;;;2.45;88.19;103294.75;5070995;28;20102;-67
2022/01/25 03:02:42;;;;;;;81.13;55.53;;;;;;;2.50;88.32;103306.19;5070997;28;20028;-67
2022/01/25 03:05:08;;;;;;;82.50;55.20;;;;;;;2.46;88.44;103304.38;5070728;28;20034;-67
2022/01/25 03:07:37;;;;;;;78.30;53.50;;;;;;;2.50;88.45;103301.81;5071251;28;20035;-67
2022/01/25 03:10:06;;;;;;;78.43;53.63;;;;;;;2.48;88.95;103306.16;5070043;28;20119;-67
2022/01/25 03:12:40;;;;;;;80.10;53.80;;;;;;;2.42;88.78;103298.22;5070354;28;20410;-67
2022/01/25 03:17:47;;;;;;;81.80;53.57;;;;;;;2.42;88.99;103298.22;5071289;28;20051;-67
2022/01/25 03:20:20;;;;;;;82.17;55.07;;;;;;;2.44;88.70;103293.88;5069814;28;20038;-68
2022/01/25 03:25:26;;;;;;;86.05;56.42;;;;;;;2.47;89.02;103283.41;5070531;28;20044;-67
2022/01/25 03:27:52;;;;;;;82.65;53.63;;;;;;;2.53;88.76;103287.84;5070067;28;20035;-67
2022/01/25 03:30:18;;;;;;;86.03;56.90;;;;;;;2.53;89.05;103295.72;5086427;28;20028;-67
2022/01/25 03:32:43;;;;;;;91.13;57.45;;;;;;;2.54;88.54;103294.84;5070020;28;20040;-67
2022/01/25 03:35:09;;;;;;;84.97;54.70;;;;;;;2.57;88.95;103288.75;5070527;28;20041;-67
2022/01/25 03:37:35;;;;;;;85.13;54.80;;;;;;;2.53;88.64;103276.41;5070422;28;20442;-67
2022/01/25 03:40:00;;;;;;;85.30;55.43;;;;;;;2.52;88.56;103279.91;5076162;28;20042;-67
2022/01/25 03:42:26;;;;;;;84.63;56.70;;;;;;;2.54;88.21;103281.72;5073633;28;20028;-67
2022/01/25 03:44:52;;;;;;;88.60;56.37;;;;;;;2.54;88.29;103275.56;5069704;28;20123;-67
2022/01/25 03:47:30;;;;;;;90.33;57.63;;;;;;;2.60;88.32;103273.00;5070441;28;20620;-67
2022/01/25 03:49:58;;;;;;;88.53;57.83;;;;;;;2.60;87.86;103286.13;5070030;28;20483;-67
2022/01/25 03:52:33;;;;;;;88.90;56.23;;;;;;;2.59;88.46;103280.00;5069680;28;20033;-67
2022/01/25 03:54:59;;;;;;;86.10;56.73;;;;;;;2.59;88.37;103279.09;5067888;28;20563;-67
2022/01/25 03:57:26;;;;;;;94.17;58.83;;;;;;;2.60;88.32;103280.88;5070194;28;20124;-68
2022/01/25 03:59:51;;;;;;;92.00;59.00;;;;;;;2.60;88.49;103287.00;5068921;28;20032;-67
2022/01/25 04:02:17;;;;;;;97.23;60.73;;;;;;;2.61;88.03;103290.50;5068004;28;20048;-67
2022/01/25 04:04:45;;;;;;;97.80;61.43;;;;;;;2.62;88.03;103295.81;5069621;28;20159;-67
2022/01/25 04:07:13;;;;;;;94.67;61.30;;;;;;;2.62;88.13;103294.94;5068515;28;20043;-67
2022/01/25 04:09:39;;;;;;;93.50;60.17;;;;;;;2.63;88.47;103299.31;5067243;28;20051;-67
2022/01/25 04:12:06;;;;;;;95.70;61.57;;;;;;;2.62;88.02;103298.44;5069565;28;20036;-67
2022/01/25 04:14:32;;;;;;;96.43;59.53;;;;;;;2.66;88.01;103301.97;5068023;28;20036;-68
2022/01/25 04:17:07;;;;;;;96.27;60.03;;;;;;;2.62;88.14;103293.19;5069960;28;20050;-67
2022/01/25 04:27:33;;;;;;;94.43;60.67;;;;;;;2.64;87.99;103282.66;5068881;28;20067;-67
2022/01/25 04:29:59;;;;;;;94.18;59.33;;;;;;;2.60;88.35;103273.00;5069458;28;20066;-67
2022/01/25 04:32:33;;;;;;;99.03;60.85;;;;;;;2.65;88.62;103289.69;5069127;28;20036;-67
2022/01/25 04:35:13;;;;;;;96.03;59.07;;;;;;;2.64;88.31;103277.41;5069800;28;20020;-67
2022/01/25 04:48:55;;;;;;;90.70;58.17;;;;;;;2.62;88.31;103259.03;5073935;28;20078;-67
2022/01/25 04:56:51;;;;;;;88.85;55.55;;;;;;;2.69;88.87;103279.22;5073436;28;20040;-67
2022/01/25 05:01:47;;;;;;;86.63;55.38;;;;;;;2.67;88.88;103273.06;5073058;28;20499;-67
2022/01/25 05:04:19;;;;;;;91.72;56.80;;;;;;;2.67;88.83;103266.94;5071450;28;20032;-67
2022/01/25 05:06:47;;;;;;;88.10;56.63;;;;;;;2.69;88.30;103275.72;5072059;28;20031;-67
2022/01/25 05:09:14;;;;;;;88.45;57.78;;;;;;;2.68;88.51;103274.84;5070947;28;20193;-67
2022/01/25 05:11:45;;;;;;;89.28;55.97;;;;;;;2.68;88.68;103268.72;5071335;28;20028;-67
2022/01/25 05:14:18;;;;;;;90.95;57.00;;;;;;;2.70;87.99;103264.31;5072545;28;20028;-67
2022/01/25 05:16:57;;;;;;;88.70;56.40;;;;;;;2.67;88.81;103262.53;5072856;28;20036;-67
2022/01/25 05:22:03;;;;;;;90.15;57.40;;;;;;;2.54;88.55;103239.69;5071614;28;20530;-67
2022/01/25 05:22:27;;;;;;;86.68;55.80;;;;;;;2.67;88.81;103259.03;5072550;28;20368;-67
2022/01/25 05:24:53;;;;;;;88.70;57.40;;;;;;;2.73;88.41;103265.22;5071846;28;20123;-67
2022/01/25 05:27:21;;;;;;;93.28;57.65;;;;;;;2.75;87.78;103261.75;5072952;28;20107;-67
2022/01/25 05:29:50;;;;;;;90.22;56.83;;;;;;;2.81;88.28;103267.06;5072212;28;20024;-67
2022/01/25 05:32:16;;;;;;;87.18;54.60;;;;;;;2.77;88.32;103267.91;5072561;28;20490;-67
2022/01/25 05:34:42;;;;;;;87.15;54.60;;;;;;;2.77;88.42;103266.16;5072157;28;20016;-67
2022/01/25 05:37:08;;;;;;;85.68;55.33;;;;;;;2.72;88.47;103267.84;5071144;28;20502;-67
2022/01/25 05:39:37;;;;;;;84.32;53.55;;;;;;;2.75;88.63;103267.00;5071535;28;20089;-67
2022/01/25 05:44:14;;;;;;;90.60;56.42;;;;;;;2.73;88.32;103266.97;5072495;28;20387;-67
2022/01/25 05:45:20;;;;;;;84.83;55.47;;;;;;;2.77;88.59;103252.16;5070901;28;20045;-67
2022/01/25 05:47:46;;;;;;;88.93;55.38;;;;;;;2.78;88.14;103264.41;5072154;28;20021;-67
2022/01/25 05:50:14;;;;;;;90.32;55.38;;;;;;;2.76;88.60;103264.38;5070301;28;20114;-67
2022/01/25 05:52:41;;;;;;;95.53;59.55;;;;;;;2.80;88.13;103257.41;5071716;28;20025;-67
2022/01/25 05:55:10;;;;;;;105.03;63.72;;;;;;;2.81;85.87;103267.06;5071962;28;20429;-67
2022/01/25 05:57:36;;;;;;;107.03;63.53;;;;;;;2.81;85.69;103264.44;5074616;28;20095;-67
2022/01/25 06:00:07;;;;;;;102.72;62.85;;;;;;;2.83;86.34;103254.81;5071097;28;20143;-67
2022/01/25 06:02:34;;;;;;;102.90;63.60;;;;;;;2.80;84.60;103255.66;5078340;28;20028;-67
2022/01/25 06:05:00;;;;;;;98.28;63.85;;;;;;;2.83;84.06;103258.31;5074765;28;20107;-67
2022/01/25 06:07:26;;;;;;;103.07;60.80;;;;;;;2.89;83.49;103254.88;5088155;28;20492;-68
2022/01/25 06:09:52;;;;;;;101.82;62.50;;;;;;;2.83;83.23;103255.69;5072615;28;20045;-67
2022/01/25 06:12:19;;;;;;;102.38;62.90;;;;;;;2.82;83.24;103253.91;5073223;28;20103;-67
2022/01/25 06:14:45;;;;;;;104.68;62.53;;;;;;;2.90;83.70;103261.88;5075138;28;20493;-67
2022/01/25 06:17:10;;;;;;;99.57;62.00;;;;;;;2.93;84.15;103261.88;5072867;28;20150;-67
2022/01/25 06:19:36;;;;;;;99.55;61.95;;;;;;;2.94;82.93;103264.53;5071798;28;20085;-67
2022/01/25 06:22:01;;;;;;;104.97;62.92;;;;;;;2.97;83.50;103255.78;5074743;28;20369;-67
2022/01/25 06:24:27;;;;;;;102.05;62.90;;;;;;;2.96;83.35;103261.91;5070846;28;20725;-67
2022/01/25 06:26:53;;;;;;;99.85;61.90;;;;;;;2.99;84.16;103267.19;5071236;28;20079;-67
2022/01/25 06:29:20;;;;;;;103.80;61.88;;;;;;;2.98;83.29;103260.19;5070464;28;20532;-67
2022/01/25 06:31:49;;;;;;;100.45;62.28;;;;;;;2.96;82.98;103257.53;5071234;28;20545;-67
2022/01/25 06:34:18;;;;;;;99.90;62.92;;;;;;;2.95;83.70;103263.66;5070024;28;20483;-67
2022/01/25 06:36:47;;;;;;;101.75;63.35;;;;;;;3.05;83.66;103258.47;5070530;28;20025;-67
2022/01/25 06:39:12;;;;;;;103.68;62.30;;;;;;;3.04;83.03;103262.84;5069479;28;20032;-68
2022/01/25 06:41:38;;;;;;;100.28;62.08;;;;;;;3.03;82.85;103271.63;5071424;28;20020;-67
2022/01/25 06:44:04;;;;;;;92.75;58.17;;;;;;;3.04;81.82;103270.75;5069458;28;20056;-67
2022/01/25 06:46:30;;;;;;;97.70;61.50;;;;;;;3.06;82.12;103269.00;5082865;28;20063;-67
2022/01/25 06:48:55;;;;;;;100.75;60.88;;;;;;;3.10;82.41;103273.41;5071168;28;20064;-68
2022/01/25 06:51:20;;;;;;;103.60;62.38;;;;;;;3.07;82.09;103262.00;5071100;28;20086;-67
2022/01/25 06:53:46;;;;;;;98.90;61.53;;;;;;;3.12;nan;103263.78;5069344;28;20476;-67
2022/01/25 06:56:11;;;;;;;95.97;60.58;;;;;;;3.08;82.42;103262.00;5070184;28;20020;-67
2022/01/25 06:58:38;;;;;;;101.07;61.83;;;;;;;3.09;82.71;103266.41;5079813;28;20116;-67
2022/01/25 07:01:06;;;;;;;98.25;61.90;;;;;;;3.05;82.16;103267.22;5091198;28;20422;-67
2022/01/25 07:03:31;;;;;;;99.18;61.60;;;;;;;3.07;82.38;103272.53;5085889;28;20383;-67
2022/01/25 07:05:56;;;;;;;97.32;60.40;;;;;;;3.07;82.38;103273.41;5068920;28;20059;-68
2022/01/25 07:08:22;;;;;;;98.40;60.13;;;;;;;3.11;82.35;103279.53;5070118;28;20055;-67
2022/01/25 07:10:50;;;;;;;98.95;60.35;;;;;;;3.15;81.98;103283.97;5069416;28;20052;-68
2022/01/25 07:13:16;;;;;;;98.65;62.58;;;;;;;3.09;82.48;103286.53;5069339;28;20045;-67
2022/01/25 07:15:42;;;;;;;93.95;59.25;;;;;;;3.12;82.44;103287.47;5070137;28;20025;-67
2022/01/25 07:18:07;;;;;;;88.82;57.65;;;;;;;3.08;81.41;103284.78;5070843;28;20024;-67
2022/01/25 07:20:35;;;;;;;105.22;61.55;;;;;;;3.11;82.62;103284.81;5069855;28;20170;-67
2022/01/25 07:23:01;;;;;;;88.28;57.67;;;;;;;3.04;81.20;103278.63;5070569;28;20035;-67
2022/01/25 07:25:27;;;;;;;94.90;59.00;;;;;;;3.11;80.62;103274.28;5068284;28;20036;-67
2022/01/25 07:27:53;;;;;;;88.47;55.88;;;;;;;3.12;80.18;103282.19;5070641;28;20163;-67
2022/01/25 07:30:19;;;;;;;85.43;53.90;;;;;;;3.15;79.91;103284.84;5070798;28;20134;-67
2022/01/25 07:32:44;;;;;;;90.20;55.97;;;;;;;3.12;79.64;103284.84;5070062;28;20091;-67
2022/01/25 07:35:10;;;;;;;97.35;60.70;;;;;;;3.13;80.56;103291.84;5070040;28;21378;-67
2022/01/25 07:37:35;;;;;;;100.70;61.95;;;;;;;3.16;80.03;103293.63;5070230;28;20036;-67
2022/01/25 07:40:01;;;;;;;84.80;56.17;;;;;;;3.13;79.01;103278.69;5069903;28;20040;-67
2022/01/25 07:42:33;;;;;;;91.10;56.63;;;;;;;3.12;79.61;103278.69;5070360;28;20059;-67
2022/01/25 07:45:07;;;;;;;90.30;57.72;;;;;;;3.17;79.00;103282.22;5070572;28;20036;-67
2022/01/25 07:47:36;;;;;;;92.13;58.92;;;;;;;3.08;78.99;103277.78;5069956;28;20038;-67
2022/01/25 07:50:05;;;;;;;98.57;62.75;;;;;;;3.11;79.40;103290.06;5070272;28;20480;-67
2022/01/25 07:52:31;;;;;;;95.75;60.40;;;;;;;3.16;79.20;103294.50;5070022;28;20051;-67
2022/01/25 07:54:57;;;;;;;98.57;60.05;;;;;;;3.14;79.29;103293.59;5068939;28;20494;-68
2022/01/25 07:57:22;;;;;;;95.00;59.03;;;;;;;3.08;78.98;103288.28;5068836;28;20487;-67
2022/01/25 07:59:47;;;;;;;97.88;59.97;;;;;;;3.08;78.69;103285.66;5069058;28;20028;-68
2022/01/25 08:02:19;;;;;;;95.85;60.85;;;;;;;3.05;79.52;103277.75;5068941;28;20021;-67
2022/01/25 08:04:44;;;;;;;98.45;61.75;;;;;;;3.10;79.79;103283.94;5069503;28;20480;-67
2022/01/25 08:07:10;;;;;;;91.13;59.78;;;;;;;3.14;79.20;103287.44;5070273;28;20094;-68
2022/01/25 08:09:36;;;;;;;95.47;59.60;;;;;;;3.15;79.32;103290.09;5069496;28;20530;-68
2022/01/25 08:12:01;;;;;;;93.40;60.42;;;;;;;3.14;79.73;103285.69;5069155;28;20139;-68
2022/01/25 08:14:29;;;;;;;99.28;61.47;;;;;;;3.14;79.66;103295.34;5071763;28;20032;-68
2022/01/25 08:16:55;;;;;;;94.93;59.17;;;;;;;3.11;79.00;103283.06;5056330;28;20028;-68
2022/01/25 08:19:23;;;;;;;90.07;57.50;;;;;;;3.09;78.50;103289.16;5071935;28;20409;-68
2022/01/25 08:21:49;;;;;;;97.28;59.97;;;;;;;3.04;78.33;103281.25;5073068;28;20041;-67
2022/01/25 08:24:18;;;;;;;99.20;60.92;;;;;;;3.03;79.08;103286.50;5073039;28;20056;-68
2022/01/25 08:26:45;;;;;;;95.03;59.67;;;;;;;3.06;78.65;103300.56;5072337;28;20094;-67
2022/01/25 08:29:11;;;;;;;100.55;64.35;;;;;;;3.14;78.76;103301.47;5073299;28;20106;-67
2022/01/25 08:31:39;;;;;;;103.40;62.45;;;;;;;3.17;78.71;103305.88;5073346;28;20028;-67
2022/01/25 08:34:05;;;;;;;102.82;63.40;;;;;;;3.17;79.36;103304.13;5072020;28;20451;-67
2022/01/25 08:36:30;;;;;;;104.88;64.65;;;;;;;3.22;79.92;103308.56;5072676;28;20056;-68
2022/01/25 08:38:56;;;;;;;108.22;66.05;;;;;;;3.21;79.74;103291.00;5072051;28;20071;-67
2022/01/25 08:41:22;;;;;;;105.45;65.03;;;;;;;3.26;80.04;103307.69;5073419;28;20060;-68
2022/01/25 08:43:49;;;;;;;105.20;66.65;;;;;;;3.22;79.95;103300.66;5072974;28;20044;-67
2022/01/25 08:46:17;;;;;;;110.55;68.38;;;;;;;3.29;79.80;103297.19;5071384;28;20108;-67
2022/01/25 08:48:45;;;;;;;112.65;68.22;;;;;;;3.34;79.71;103298.13;5072174;28;20032;-68
2022/01/25 08:51:11;;;;;;;114.85;70.03;;;;;;;3.31;79.46;103292.84;5072170;28;20031;-68
2022/01/25 08:53:36;;;;;;;106.30;68.30;;;;;;;3.35;78.34;103316.56;5079903;28;20033;-67
2022/01/25 08:56:03;;;;;;;110.80;67.85;;;;;;;3.36;78.51;103306.91;5085058;28;20043;-67
2022/01/25 08:58:31;;;;;;;106.10;66.90;;;;;;;3.34;78.53;103306.00;5093662;28;20032;-68
2022/01/25 09:00:57;;;;;;;108.45;67.63;;;;;;;3.40;78.52;103312.19;5086557;28;20047;-67
2022/01/25 09:03:23;;;;;;;111.40;67.15;;;;;;;3.43;78.63;103316.59;5072041;28;20024;-67
2022/01/25 09:05:48;;;;;;;113.65;69.70;;;;;;;3.41;78.21;103316.59;5070886;28;20036;-68
2022/01/25 09:08:20;;;;;;;117.80;71.22;;;;;;;3.47;78.46;103321.03;5072412;28;20451;-68
2022/01/25 09:10:50;;;;;;;112.95;70.32;;;;;;;3.47;78.10;103315.75;5077296;28;20089;-68
2022/01/25 09:13:18;;;;;;;112.75;70.32;;;;;;;3.29;78.10;103291.94;5074946;28;20074;-67
2022/01/25 09:15:43;;;;;;;118.35;71.18;;;;;;;3.48;79.05;103317.50;5071088;28;20028;-68
2022/01/25 09:18:09;;;;;;;120.55;74.15;;;;;;;3.50;78.64;103320.13;5070192;28;20028;-67
2022/01/25 09:20:34;;;;;;;126.22;75.30;;;;;;;3.53;78.53;103323.69;5070659;28;20033;-68
2022/01/25 09:23:00;;;;;;;124.55;77.70;;;;;;;3.54;78.03;103321.94;5071526;28;20036;-68
2022/01/25 09:25:26;;;;;;;126.40;77.18;;;;;;;3.52;78.08;103318.41;5068952;28;20038;-67
2022/01/25 09:27:51;;;;;;;133.02;80.85;;;;;;;3.49;77.77;103308.72;5071898;28;20036;-67
2022/01/25 09:30:17;;;;;;;135.50;80.57;;;;;;;3.53;78.12;103318.44;5068241;28;20032;-68
2022/01/25 09:32:42;;;;;;;132.98;80.25;;;;;;;3.57;78.21;103321.94;5071718;28;20060;-67
2022/01/25 09:35:09;;;;;;;137.63;82.20;;;;;;;3.57;78.27;103311.44;5072430;28;20032;-68
2022/01/25 09:37:34;;;;;;;132.00;79.97;;;;;;;3.63;77.69;103322.84;5074396;28;20085;-68
2022/01/25 09:40:01;;;;;;;136.77;80.20;;;;;;;3.67;78.53;103325.50;5076014;28;20095;-67
2022/01/25 09:42:29;;;;;;;131.48;79.60;;;;;;;3.66;78.18;103318.50;5073100;28;20063;-68
2022/01/25 09:44:55;;;;;;;129.82;79.13;;;;;;;3.66;78.20;103322.00;5070036;28;20395;-67
2022/01/25 09:47:20;;;;;;;131.40;80.15;;;;;;;3.69;77.52;103324.66;5074195;28;20052;-68
2022/01/25 09:49:45;;;;;;;131.40;82.43;;;;;;;3.70;77.14;103330.78;5071515;28;20063;-68
2022/01/25 09:52:11;;;;;;;144.43;86.05;;;;;;;3.70;77.25;103323.75;5075005;28;20032;-67
2022/01/25 09:54:37;;;;;;;140.68;84.82;;;;;;;3.69;77.00;103324.66;5071086;28;20032;-68
2022/01/25 09:57:05;;;;;;;136.52;83.35;;;;;;;3.73;77.09;103334.31;5070750;28;20119;-68
2022/01/25 09:59:31;;;;;;;140.38;83.43;;;;;;;3.74;77.38;103336.09;5071164;28;20024;-68
2022/01/25 10:01:57;;;;;;;140.82;83.60;;;;;;;3.75;76.76;103331.69;5071557;28;20051;-67
2022/01/25 10:04:37;;;;;;;137.93;83.82;;;;;;;3.79;76.96;103331.69;5071214;28;20130;-67
2022/01/25 10:07:04;;;;;;;138.32;82.75;;;;;;;3.80;77.30;103338.75;5071318;28;20020;-68
2022/01/25 10:09:32;;;;;;;129.65;80.65;;;;;;;3.77;76.60;103324.69;5070529;28;20028;-67
2022/01/25 10:12:14;;;;;;;134.30;80.80;;;;;;;3.78;77.38;103331.72;5070676;28;20067;-67
2022/01/25 10:14:52;;;;;;;130.23;80.15;;;;;;;3.83;76.97;103340.53;5068447;28;20020;-67
2022/01/25 10:17:32;;;;;;;130.48;79.55;;;;;;;3.81;76.83;103332.59;5070293;28;20024;-67
2022/01/25 10:19:59;;;;;;;131.63;77.93;;;;;;;3.81;76.04;103339.63;5070833;28;20386;-68
2022/01/25 10:22:39;;;;;;;133.27;81.45;;;;;;;3.77;75.82;103333.47;5069924;28;20025;-68
2022/01/25 10:25:05;;;;;;;;;;;;;;;3.90;76.38;103341.44;5069522;28;20048;-67
2022/01/25 10:28:10;;;;;;;131.15;79.43;;;;;;;3.79;76.37;103336.97;5070746;28;19912;-67
2022/01/25 10:30:41;;;;;;;130.85;78.50;;;;;;;3.78;75.55;103340.47;5070843;28;20020;-68
2022/01/25 10:33:28;;;;;;;130.52;80.70;;;;;;;3.80;76.07;103337.88;5069905;28;20028;-67
2022/01/25 10:35:57;;;;;;;137.25;79.03;;;;;;;3.78;75.84;103332.59;5070427;28;20472;-68
2022/01/25 10:38:24;;;;;;;129.20;79.63;;;;;;;3.81;75.23;103339.63;5070218;28;20027;-68
2022/01/25 10:41:00;;;;;;;129.60;79.10;;;;;;;3.83;76.52;103337.88;5070368;28;20035;-67
2022/01/25 10:43:28;;;;;;;126.43;77.15;;;;;;;3.83;75.14;103338.75;5070003;28;20017;-67
2022/01/25 10:46:28;;;;;;;129.75;79.05;;;;;;;3.89;76.01;103340.56;5069357;28;20057;-67
2022/01/25 10:48:59;;;;;;;124.90;78.53;;;;;;;3.90;75.57;103339.66;5068410;28;20376;-67
2022/01/25 10:51:27;;;;;;;124.15;77.38;;;;;;;3.92;75.62;103340.56;5071044;28;20114;-68
2022/01/25 10:54:01;;;;;;;129.88;75.47;;;;;;;3.92;75.60;103334.44;5069988;28;20032;-67
2022/01/25 10:56:37;;;;;;;132.88;79.13;;;;;;;3.92;75.41;103337.94;5070818;28;20024;-67
2022/01/25 10:59:05;;;;;;;119.15;75.30;;;;;;;3.92;74.76;103332.66;5073302;28;20385;-68
2022/01/25 11:01:39;;;;;;;123.20;77.55;;;;;;;3.89;74.92;103330.03;5075654;28;20111;-67
2022/01/25 11:04:15;;;;;;;124.65;77.22;;;;;;;3.98;74.97;103335.31;5069405;28;20056;-67
2022/01/25 11:06:42;;;;;;;124.63;76.15;;;;;;;3.94;74.56;103338.84;5070436;28;20036;-67
2022/01/25 11:09:11;;;;;;;128.88;78.25;;;;;;;3.91;74.68;103338.78;5070080;28;20137;-67
2022/01/25 11:11:44;;;;;;;122.38;75.25;;;;;;;3.92;74.11;103337.94;5070360;28;20044;-68
2022/01/25 11:14:50;;;;;;;125.90;75.85;;;;;;;3.94;74.63;103338.84;5070840;28;20062;-67
2022/01/25 11:16:55;;;;;;;124.80;75.15;;;;;;;3.95;74.15;103340.56;5070926;28;20037;-67
2022/01/25 11:19:22;;;;;;;124.07;74.68;;;;;;;3.93;74.34;103342.31;5074960;28;20454;-67
2022/01/25 11:21:51;;;;;;;128.38;77.07;;;;;;;3.98;73.83;103345.84;5073794;28;20399;-67
2022/01/25 11:24:20;;;;;;;119.25;74.72;;;;;;;3.98;73.73;103339.72;5070265;28;20062;-67
2022/01/25 11:26:49;;;;;;;126.13;75.45;;;;;;;3.96;74.08;103338.81;5070308;28;20056;-67
2022/01/25 11:29:16;;;;;;;123.65;75.03;;;;;;;3.98;74.07;103348.50;5069914;28;20024;-68
2022/01/25 11:31:49;;;;;;;122.70;74.40;;;;;;;4.00;73.75;103343.22;5068550;28;20044;-67
2022/01/25 11:34:15;;;;;;;122.75;74.82;;;;;;;4.01;73.26;103345.00;5062756;28;20028;-67
2022/01/25 11:37:07;;;;;;;127.32;78.03;;;;;;;4.04;74.50;103345.88;5069500;28;20497;-68
2022/01/25 11:39:37;;;;;;;128.82;77.93;;;;;;;3.99;73.66;103344.09;5068043;28;20381;-67
2022/01/25 11:42:11;;;;;;;126.95;76.15;;;;;;;4.07;74.29;103339.75;5069434;28;20024;-67
2022/01/25 11:44:49;;;;;;;126.28;76.53;;;;;;;4.09;74.40;103338.00;5068657;28;20110;-67
2022/01/25 11:47:18;;;;;;;130.25;78.63;;;;;;;4.10;73.95;103327.47;5068085;28;20032;-68
2022/01/25 11:49:54;;;;;;;125.22;77.05;;;;;;;4.14;73.82;103338.88;5069620;28;20040;-67
2022/01/25 11:52:21;;;;;;;128.00;78.13;;;;;;;4.11;73.50;103330.97;5068722;28;20074;-68
2022/01/25 11:54:50;;;;;;;124.30;77.07;;;;;;;4.14;73.83;103332.75;5067313;28;20036;-68
2022/01/25 11:57:16;;;;;;;122.05;78.22;;;;;;;4.17;73.75;103338.91;5068306;28;20063;-68
2022/01/25 11:59:48;;;;;;;123.70;78.38;;;;;;;4.21;74.35;103334.56;5069491;28;20034;-68
2022/01/25 12:02:35;;;;;;;127.65;79.32;;;;;;;4.24;74.21;103326.66;5068331;28;20033;-68
2022/01/25 12:05:09;;;;;;;129.00;80.25;;;;;;;4.26;74.90;103333.66;5068331;28;20028;-68
2022/01/25 12:07:43;;;;;;;126.82;79.30;;;;;;;4.25;74.06;103328.41;5068088;28;20115;-67
2022/01/25 12:10:37;;;;;;;120.28;77.63;;;;;;;4.27;74.46;103321.41;5068215;28;20044;-68
2022/01/25 12:13:10;;;;;;;124.03;77.88;;;;;;;4.25;73.76;103320.50;5082653;28;20115;-68
2022/01/25 12:15:37;;;;;;;124.07;78.47;;;;;;;4.21;73.77;103319.63;5068969;28;20031;-68
2022/01/25 12:18:03;;;;;;;127.45;78.47;;;;;;;4.23;73.77;103317.84;5069040;28;20024;-68
2022/01/25 12:20:29;;;;;;;132.15;81.38;;;;;;;4.24;74.13;103308.22;5066541;28;20499;-68
2022/01/25 12:23:10;;;;;;;127.35;79.05;;;;;;;4.28;74.92;103323.16;5070312;28;20032;-68
2022/01/25 12:25:52;;;;;;;120.60;79.10;;;;;;;4.26;74.39;103315.22;5061282;28;20028;-68
2022/01/25 12:28:31;;;;;;;127.60;78.25;;;;;;;4.29;74.28;103311.72;5070069;28;20404;-68
2022/01/25 12:31:01;;;;;;;123.40;75.43;;;;;;;4.29;74.18;103309.09;5069287;28;20476;-68
2022/01/25 12:33:29;;;;;;;127.93;79.20;;;;;;;4.27;73.79;103311.72;5067182;28;20032;-68
2022/01/25 12:36:00;;;;;;;123.65;77.22;;;;;;;4.26;73.41;103309.09;5067737;28;20028;-68
2022/01/25 12:38:38;;;;;;;128.77;77.10;;;;;;;4.19;73.01;103299.41;5069249;28;20033;-68
2022/01/25 12:41:13;;;;;;;121.70;76.55;;;;;;;4.23;72.80;103298.53;5075517;28;20473;-67
2022/01/25 12:43:50;;;;;;;126.70;77.15;;;;;;;4.29;73.14;103299.47;5066709;28;20483;-67
2022/01/25 12:46:18;;;;;;;120.28;73.40;;;;;;;4.27;72.24;103303.84;5067715;28;20035;-67
2022/01/25 12:48:47;;;;;;;123.07;76.53;;;;;;;4.25;72.32;103302.06;5068161;28;20090;-67
2022/01/25 12:51:20;;;;;;;117.18;73.95;;;;;;;4.29;73.51;103301.19;5070033;28;20187;-67
2022/01/25 12:53:47;;;;;;;124.82;74.97;;;;;;;4.30;72.26;103300.34;5083879;28;20031;-67
2022/01/25 12:56:22;;;;;;;114.63;73.18;;;;;;;4.29;71.98;103295.91;5072713;28;20310;-67
2022/01/25 12:58:52;;;;;;;116.47;72.47;;;;;;;4.23;72.26;103299.41;5068448;28;20340;-67
2022/01/25 13:01:18;;;;;;;;;;;;;;;4.35;73.08;103288.03;5076490;28;20032;-67
2022/01/25 13:03:49;;;;;;;129.45;76.95;;;;;;;4.24;72.66;103287.16;5074626;28;20398;-68
2022/01/25 13:06:25;;;;;;;121.05;76.50;;;;;;;4.24;72.89;103281.88;5073025;28;20032;-67